createdAt,value
2018-03-21T00:00:04.269Z,99.90
2018-03-21T00:02:32.522Z,99.90
2018-03-21T00:05:00.782Z,99.90
2018-03-21T00:07:29.034Z,99.90
2018-03-21T00:09:57.291Z,99.90
2018-03-21T00:12:25.549Z,99.90
2018-03-21T00:14:53.802Z,99.90
2018-03-21T00:17:22.059Z,99.90
2018-03-21T00:19:50.323Z,99.90
2018-03-21T00:22:19.339Z,99.90
2018-03-21T00:24:47.602Z,99.90
2018-03-21T00:27:16.611Z,99.90
2018-03-21T00:29:44.875Z,99.90
2018-03-21T00:32:15.405Z,99.90
2018-03-21T00:34:43.656Z,99.90
2018-03-21T00:37:11.907Z,99.90
2018-03-21T00:39:40.168Z,99.90
2018-03-21T00:42:08.412Z,99.90
2018-03-21T00:44:36.673Z,99.90
2018-03-21T00:47:05.686Z,99.90
2018-03-21T00:49:33.939Z,99.90
2018-03-21T00:52:02.966Z,99.90
2018-03-21T00:54:31.224Z,99.90
2018-03-21T00:56:59.483Z,99.90
2018-03-21T00:59:28.518Z,99.90
2018-03-21T01:01:56.770Z,99.90
2018-03-21T01:04:25.026Z,99.90
2018-03-21T01:06:54.047Z,99.90
2018-03-21T01:09:22.327Z,99.90
2018-03-21T01:11:50.586Z,99.90
2018-03-21T01:14:18.838Z,99.90
2018-03-21T01:16:47.106Z,99.90
2018-03-21T01:19:15.353Z,99.90
2018-03-21T01:21:43.607Z,99.90
2018-03-21T01:24:11.871Z,99.90
2018-03-21T01:26:40.137Z,99.90
2018-03-21T01:29:09.151Z,99.90
2018-03-21T01:31:37.410Z,99.90
2018-03-21T01:34:05.691Z,99.90
2018-03-21T01:36:33.936Z,99.90
2018-03-21T01:39:02.187Z,99.90
2018-03-21T01:41:30.442Z,99.90
2018-03-21T01:43:58.704Z,99.90
2018-03-21T01:46:26.962Z,99.90
2018-03-21T01:48:55.211Z,99.90
2018-03-21T01:51:23.471Z,99.90
2018-03-21T01:53:51.732Z,99.90
2018-03-21T01:56:19.978Z,99.90
2018-03-21T01:58:48.234Z,99.90
2018-03-21T02:01:17.270Z,99.90
2018-03-21T02:03:45.527Z,99.90
2018-03-21T02:06:13.796Z,99.90
2018-03-21T02:08:42.044Z,99.90
2018-03-21T02:11:11.055Z,99.90
2018-03-21T02:13:39.314Z,99.90
2018-03-21T02:16:08.332Z,99.90
2018-03-21T02:18:36.580Z,99.90
2018-03-21T02:21:05.598Z,99.90
2018-03-21T02:23:33.865Z,99.90
2018-03-21T02:26:02.870Z,99.90
2018-03-21T02:28:31.135Z,99.90
2018-03-21T02:30:59.390Z,99.90
2018-03-21T02:33:27.642Z,99.90
2018-03-21T02:35:55.901Z,99.90
2018-03-21T02:38:24.156Z,99.90
2018-03-21T02:40:52.408Z,99.90
2018-03-21T02:43:21.432Z,99.90
2018-03-21T02:45:49.676Z,99.90
2018-03-21T02:48:18.707Z,99.90
2018-03-21T02:50:46.957Z,99.90
2018-03-21T02:53:15.203Z,99.90
2018-03-21T02:55:44.221Z,99.90
2018-03-21T02:58:12.472Z,99.90
2018-03-21T03:00:41.487Z,99.90
2018-03-21T03:03:09.756Z,99.90
2018-03-21T03:05:38.782Z,99.90
2018-03-21T03:08:07.034Z,99.90
2018-03-21T03:10:35.287Z,99.90
2018-03-21T03:13:04.310Z,99.90
2018-03-21T03:15:32.555Z,99.90
2018-03-21T03:18:01.579Z,99.90
2018-03-21T03:20:29.828Z,99.90
2018-03-21T03:22:58.858Z,99.90
2018-03-21T03:25:27.103Z,99.90
2018-03-21T03:27:56.112Z,99.90
2018-03-21T03:30:24.367Z,99.90
2018-03-21T03:32:53.383Z,99.90
2018-03-21T03:35:21.646Z,99.90
2018-03-21T03:37:49.898Z,99.90
2018-03-21T03:40:18.155Z,99.90
2018-03-21T03:42:46.403Z,99.90
2018-03-21T03:45:14.663Z,99.90
2018-03-21T03:47:42.911Z,99.90
2018-03-21T03:50:11.939Z,99.90
2018-03-21T03:52:40.187Z,99.90
2018-03-21T03:55:08.446Z,99.90
2018-03-21T03:57:36.708Z,99.90
2018-03-21T04:00:04.971Z,99.90
2018-03-21T04:02:33.219Z,99.90
2018-03-21T04:05:01.483Z,99.90
2018-03-21T04:07:29.738Z,99.90
2018-03-21T04:09:58.767Z,99.90
2018-03-21T04:12:27.019Z,99.90
2018-03-21T04:14:55.270Z,99.90
2018-03-21T04:17:24.294Z,99.90
2018-03-21T04:19:52.547Z,99.90
2018-03-21T04:22:21.561Z,99.90
2018-03-21T04:24:49.822Z,99.90
2018-03-21T04:27:18.842Z,99.90
2018-03-21T04:29:47.103Z,99.90
2018-03-21T04:32:15.358Z,99.90
2018-03-21T04:34:44.363Z,99.90
2018-03-21T04:37:12.633Z,99.90
2018-03-21T04:39:41.641Z,99.90
2018-03-21T04:42:09.909Z,99.90
2018-03-21T04:44:38.158Z,99.90
2018-03-21T04:47:07.072Z,99.90
2018-03-21T04:49:35.322Z,99.90
2018-03-21T04:52:03.574Z,99.90
2018-03-21T04:54:31.827Z,99.90
2018-03-21T04:57:00.087Z,99.90
2018-03-21T04:59:28.340Z,99.90
2018-03-21T05:01:57.409Z,99.90
2018-03-21T05:04:25.611Z,99.90
2018-03-21T05:06:54.639Z,99.90
2018-03-21T05:09:22.893Z,99.90
2018-03-21T05:11:51.149Z,99.90
2018-03-21T05:14:19.405Z,99.90
2018-03-21T05:16:47.680Z,99.90
2018-03-21T05:19:15.934Z,99.90
2018-03-21T05:21:44.193Z,99.90
2018-03-21T05:24:12.439Z,99.90
2018-03-21T05:26:40.689Z,99.90
2018-03-21T05:29:08.955Z,99.90
2018-03-21T05:31:37.281Z,99.90
2018-03-21T05:34:05.483Z,99.90
2018-03-21T05:36:33.738Z,99.90
2018-03-21T05:39:01.990Z,99.90
2018-03-21T05:41:31.010Z,99.90
2018-03-21T05:43:59.260Z,99.90
2018-03-21T05:46:28.271Z,99.90
2018-03-21T05:48:56.528Z,99.90
2018-03-21T05:51:25.598Z,99.90
2018-03-21T05:53:53.854Z,99.90
2018-03-21T05:56:22.104Z,99.90
2018-03-21T05:58:50.363Z,99.90
2018-03-21T06:01:18.607Z,99.90
2018-03-21T06:03:47.625Z,99.90
2018-03-21T06:06:15.891Z,99.90
2018-03-21T06:08:44.959Z,99.90
2018-03-21T06:11:13.165Z,99.90
2018-03-21T06:13:41.422Z,99.90
2018-03-21T06:16:09.662Z,99.90
2018-03-21T06:18:37.919Z,99.90
2018-03-21T06:21:06.167Z,99.90
2018-03-21T06:23:34.442Z,99.90
2018-03-21T06:26:02.688Z,99.90
2018-03-21T06:28:30.935Z,99.90
2018-03-21T06:30:59.197Z,99.90
2018-03-21T06:33:27.444Z,99.90
2018-03-21T06:35:55.696Z,99.90
2018-03-21T06:38:23.960Z,99.90
2018-03-21T06:40:52.215Z,99.90
2018-03-21T06:43:20.486Z,99.90
2018-03-21T06:45:48.735Z,99.90
2018-03-21T06:48:16.982Z,99.90
2018-03-21T06:50:46.017Z,99.90
2018-03-21T06:53:14.262Z,99.90
2018-03-21T06:55:42.524Z,99.90
2018-03-21T06:58:11.540Z,99.90
2018-03-21T07:00:39.792Z,99.90
2018-03-21T07:03:08.807Z,99.90
2018-03-21T07:05:37.064Z,99.90
2018-03-21T07:08:06.078Z,99.90
2018-03-21T07:10:34.346Z,99.90
2018-03-21T07:13:02.599Z,99.90
2018-03-21T07:18:40.237Z,99.90
2018-03-21T07:21:08.494Z,99.90
2018-03-21T07:23:37.511Z,99.90
2018-03-21T07:26:05.758Z,99.90
2018-03-21T07:28:34.792Z,99.90
2018-03-21T07:31:03.080Z,99.90
2018-03-21T07:33:32.062Z,99.90
2018-03-21T07:36:00.316Z,99.90
2018-03-21T07:38:28.567Z,99.90
2018-03-21T07:40:56.847Z,99.90
2018-03-21T07:43:25.105Z,99.90
2018-03-21T07:45:53.356Z,99.90
2018-03-21T07:48:21.616Z,99.90
2018-03-21T07:50:49.866Z,99.90
2018-03-21T07:53:18.139Z,99.90
2018-03-21T07:55:47.147Z,99.90
2018-03-21T07:58:15.411Z,99.90
2018-03-21T08:00:43.667Z,99.90
2018-03-21T08:03:12.692Z,99.90
2018-03-21T08:05:40.939Z,99.90
2018-03-21T08:08:09.966Z,99.90
2018-03-21T08:10:38.211Z,99.90
2018-03-21T08:13:07.246Z,99.90
2018-03-21T08:15:35.491Z,99.90
2018-03-21T08:18:04.508Z,99.90
2018-03-21T08:20:32.766Z,99.90
2018-03-21T08:23:01.011Z,99.90
2018-03-21T08:25:29.278Z,99.90
2018-03-21T08:27:57.598Z,99.90
2018-03-21T08:30:26.553Z,99.90
2018-03-21T08:32:54.799Z,99.90
2018-03-21T08:35:23.054Z,99.90
2018-03-21T08:37:51.307Z,99.90
2018-03-21T08:40:19.568Z,99.90
2018-03-21T08:42:48.587Z,99.90
2018-03-21T08:45:16.843Z,99.90
2018-03-21T08:47:45.860Z,99.90
2018-03-21T08:50:14.110Z,99.90
2018-03-21T08:52:43.127Z,99.90
2018-03-21T08:55:11.406Z,99.90
2018-03-21T08:57:39.650Z,99.90
2018-03-21T09:00:08.665Z,99.90
2018-03-21T09:02:36.926Z,99.90
2018-03-21T09:05:05.933Z,99.90
2018-03-21T09:07:34.190Z,99.90
2018-03-21T09:10:03.209Z,99.90
2018-03-21T09:12:31.467Z,99.90
2018-03-21T09:14:59.716Z,99.90
2018-03-21T09:17:27.999Z,99.90
2018-03-21T09:19:57.012Z,99.90
2018-03-21T09:22:26.039Z,99.90
2018-03-21T09:24:54.293Z,99.90
2018-03-21T09:27:22.553Z,99.90
2018-03-21T09:29:51.573Z,99.90
2018-03-21T09:32:19.827Z,99.90
2018-03-21T09:34:48.078Z,99.90
2018-03-21T09:37:16.334Z,99.90
2018-03-21T09:39:44.576Z,99.90
2018-03-21T09:42:12.826Z,99.90
2018-03-21T09:44:41.079Z,99.90
2018-03-21T09:47:10.105Z,99.90
2018-03-21T09:49:38.387Z,99.50
2018-03-21T09:52:06.651Z,99.70
2018-03-21T09:54:40.407Z,99.60
2018-03-21T09:57:08.678Z,96.70
2018-03-21T09:59:36.931Z,88.00
2018-03-21T10:02:05.179Z,80.00
2018-03-21T10:04:33.433Z,76.80
2018-03-21T10:07:01.683Z,72.70
2018-03-21T10:09:29.936Z,76.10
2018-03-21T10:11:58.189Z,72.20
2018-03-21T10:14:26.438Z,68.50
2018-03-21T10:16:55.451Z,70.70
2018-03-21T10:19:23.706Z,70.70
2018-03-21T10:21:52.728Z,65.10
2018-03-21T10:24:20.989Z,65.00
2018-03-21T10:26:49.997Z,66.50
2018-03-21T10:29:18.294Z,66.60
2018-03-21T10:31:47.267Z,63.00
2018-03-21T10:34:15.532Z,63.10
2018-03-21T10:36:43.806Z,59.70
2018-03-21T10:39:12.812Z,57.30
2018-03-21T10:41:41.069Z,57.20
2018-03-21T10:44:10.113Z,56.20
2018-03-21T10:46:38.364Z,56.10
2018-03-21T10:49:06.611Z,59.50
2018-03-21T10:51:34.863Z,54.10
2018-03-21T10:54:03.129Z,56.40
2018-03-21T10:56:31.381Z,54.90
2018-03-21T10:58:59.635Z,57.20
2018-03-21T11:01:33.342Z,60.00
2018-03-21T11:04:01.617Z,57.10
2018-03-21T11:06:29.902Z,55.30
2018-03-21T11:08:58.869Z,54.50
2018-03-21T11:11:27.894Z,53.70
2018-03-21T11:13:56.164Z,53.60
2018-03-21T11:16:25.154Z,52.90
2018-03-21T11:18:53.396Z,52.70
2018-03-21T11:21:22.410Z,49.30
2018-03-21T11:23:50.651Z,49.40
2018-03-21T11:26:18.907Z,46.10
2018-03-21T11:28:47.148Z,47.30
2018-03-21T11:31:15.406Z,49.10
2018-03-21T11:33:43.641Z,45.40
2018-03-21T11:36:11.889Z,45.90
2018-03-21T11:38:40.127Z,46.90
2018-03-21T11:41:08.374Z,43.10
2018-03-21T11:43:36.610Z,44.20
2018-03-21T11:46:04.861Z,44.00
2018-03-21T11:48:33.094Z,44.30
2018-03-21T11:51:01.347Z,41.90
2018-03-21T11:53:29.589Z,42.70
2018-03-21T11:55:57.863Z,44.70
2018-03-21T11:58:26.100Z,42.50
2018-03-21T12:00:54.338Z,43.90
2018-03-21T12:03:22.587Z,41.10
2018-03-21T12:05:50.826Z,40.50
2018-03-21T12:08:19.084Z,41.60
2018-03-21T12:10:47.327Z,40.60
2018-03-21T12:13:15.574Z,39.40
2018-03-21T12:15:44.583Z,40.50
2018-03-21T12:18:12.845Z,40.50
2018-03-21T12:20:41.852Z,40.90
2018-03-21T12:23:10.104Z,40.90
2018-03-21T12:25:39.107Z,41.10
2018-03-21T12:28:08.120Z,41.50
2018-03-21T12:30:36.362Z,41.50
2018-03-21T12:33:05.394Z,36.30
2018-03-21T12:35:33.634Z,36.20
2018-03-21T12:38:02.648Z,39.70
2018-03-21T12:40:30.902Z,39.70
2018-03-21T12:42:59.911Z,37.00
2018-03-21T12:45:28.934Z,41.60
2018-03-21T12:47:57.176Z,41.20
2018-03-21T12:50:26.201Z,36.60
2018-03-21T12:52:54.448Z,36.60
2018-03-21T12:55:23.468Z,33.60
2018-03-21T12:57:51.715Z,33.60
2018-03-21T13:00:20.728Z,32.10
2018-03-21T13:02:48.971Z,32.10
2018-03-21T13:05:17.983Z,33.00
2018-03-21T13:07:46.274Z,32.90
2018-03-21T13:10:14.484Z,35.80
2018-03-21T13:12:42.723Z,35.30
2018-03-21T13:15:10.979Z,34.30
2018-03-21T13:17:39.983Z,34.90
2018-03-21T13:20:08.244Z,34.90
2018-03-21T13:22:37.261Z,33.70
2018-03-21T13:25:05.508Z,33.60
2018-03-21T13:27:34.515Z,32.90
2018-03-21T13:30:02.764Z,32.80
2018-03-21T13:32:31.773Z,30.60
2018-03-21T13:35:00.833Z,30.00
2018-03-21T13:37:29.036Z,30.00
2018-03-21T13:39:58.051Z,30.50
2018-03-21T13:42:26.306Z,30.50
2018-03-21T13:44:55.316Z,29.20
2018-03-21T13:47:23.563Z,29.20
2018-03-21T13:49:51.799Z,28.30
2018-03-21T13:52:20.049Z,29.60
2018-03-21T13:54:48.287Z,29.60
2018-03-21T13:57:17.303Z,27.70
2018-03-21T13:59:45.542Z,27.60
2018-03-21T14:02:13.795Z,28.20
2018-03-21T14:04:42.043Z,27.60
2018-03-21T14:07:10.301Z,27.60
2018-03-21T14:09:39.311Z,28.20
2018-03-21T14:12:07.555Z,28.20
2018-03-21T14:14:36.562Z,27.80
2018-03-21T14:17:04.878Z,27.80
2018-03-21T14:19:33.834Z,28.30
2018-03-21T14:22:02.106Z,28.30
2018-03-21T14:24:31.123Z,24.50
2018-03-21T14:26:59.371Z,24.50
2018-03-21T14:29:28.394Z,25.00
2018-03-21T14:31:56.630Z,25.00
2018-03-21T14:34:25.648Z,27.10
2018-03-21T14:36:53.898Z,27.00
2018-03-21T14:39:22.923Z,27.00
2018-03-21T14:41:51.179Z,27.00
2018-03-21T14:44:20.203Z,25.30
2018-03-21T14:46:48.455Z,25.30
2018-03-21T14:49:16.714Z,25.00
2018-03-21T14:51:45.727Z,22.60
2018-03-21T14:54:13.985Z,22.50
2018-03-21T14:56:42.982Z,24.70
2018-03-21T14:59:12.000Z,27.30
2018-03-21T15:01:40.246Z,27.30
2018-03-21T15:04:09.262Z,26.90
2018-03-21T15:06:37.509Z,27.40
2018-03-21T15:09:06.522Z,27.90
2018-03-21T15:11:34.774Z,27.80
2018-03-21T15:14:03.019Z,25.60
2018-03-21T15:16:31.270Z,25.50
2018-03-21T15:18:59.545Z,25.20
2018-03-21T15:21:27.798Z,25.10
2018-03-21T15:23:56.807Z,23.60
2018-03-21T15:26:25.068Z,23.70
2018-03-21T15:28:53.336Z,23.40
2018-03-21T15:31:22.355Z,23.10
2018-03-21T15:33:50.613Z,23.00
2018-03-21T15:36:18.868Z,23.00
2018-03-21T15:38:47.889Z,23.20
2018-03-21T15:41:16.142Z,23.10
2018-03-21T15:43:45.158Z,22.50
2018-03-21T15:46:13.420Z,22.50
2018-03-21T15:48:41.672Z,21.60
2018-03-21T15:51:09.988Z,26.30
2018-03-21T15:53:38.182Z,23.00
2018-03-21T15:56:06.426Z,22.90
2018-03-21T15:58:34.671Z,25.50
2018-03-21T16:01:02.926Z,25.90
2018-03-21T16:03:31.941Z,25.10
2018-03-21T16:06:00.591Z,25.10
2018-03-21T16:08:28.804Z,24.80
2018-03-21T16:10:57.051Z,25.70
2018-03-21T16:13:25.294Z,24.80
2018-03-21T16:15:53.562Z,25.10
2018-03-21T16:18:21.805Z,26.00
2018-03-21T16:20:50.046Z,26.30
2018-03-21T16:23:18.307Z,25.80
2018-03-21T16:25:46.550Z,25.70
2018-03-21T16:28:14.825Z,26.60
2018-03-21T16:30:43.814Z,27.00
2018-03-21T16:33:12.832Z,28.30
2018-03-21T16:35:41.078Z,28.30
2018-03-21T16:38:10.103Z,27.40
2018-03-21T16:40:38.350Z,27.30
2018-03-21T16:43:06.603Z,27.50
2018-03-21T16:45:34.842Z,30.30
2018-03-21T16:48:03.097Z,31.00
2018-03-21T16:50:31.344Z,32.70
2018-03-21T16:53:00.360Z,32.60
2018-03-21T16:55:28.599Z,32.50
2018-03-21T16:57:56.848Z,34.30
2018-03-21T17:00:25.094Z,36.60
2018-03-21T17:02:53.350Z,38.20
2018-03-21T17:05:21.607Z,38.30
2018-03-21T17:07:50.624Z,37.50
2018-03-21T17:10:18.950Z,37.40
2018-03-21T17:12:47.142Z,37.90
2018-03-21T17:15:15.408Z,38.10
2018-03-21T17:17:43.659Z,38.00
2018-03-21T17:20:11.922Z,37.90
2018-03-21T17:22:40.188Z,37.90
2018-03-21T17:25:08.434Z,37.90
2018-03-21T17:27:37.446Z,38.90
2018-03-21T17:30:05.703Z,38.90
2018-03-21T17:32:34.727Z,39.10
2018-03-21T17:35:02.978Z,39.10
2018-03-21T17:37:31.227Z,39.80
2018-03-21T17:39:59.479Z,40.50
2018-03-21T17:42:27.729Z,41.10
2018-03-21T17:44:55.979Z,41.40
2018-03-21T17:47:24.994Z,40.90
2018-03-21T17:49:53.259Z,40.80
2018-03-21T17:52:21.503Z,41.00
2018-03-21T17:54:49.748Z,41.50
2018-03-21T17:57:18.012Z,41.40
2018-03-21T17:59:46.254Z,41.30
2018-03-21T18:02:14.514Z,41.80
2018-03-21T18:04:43.531Z,42.30
2018-03-21T18:07:11.783Z,42.20
2018-03-21T18:09:40.791Z,40.90
2018-03-21T18:12:09.042Z,40.90
2018-03-21T18:14:38.055Z,41.70
2018-03-21T18:17:06.311Z,41.00
2018-03-21T18:19:35.326Z,40.60
2018-03-21T18:22:03.590Z,40.20
2018-03-21T18:24:32.607Z,41.00
2018-03-21T18:27:00.860Z,41.00
2018-03-21T18:29:29.867Z,42.10
2018-03-21T18:31:58.119Z,42.00
2018-03-21T18:34:27.131Z,43.00
2018-03-21T18:36:56.154Z,43.60
2018-03-21T18:39:24.396Z,43.50
2018-03-21T18:41:53.402Z,44.50
2018-03-21T18:44:21.659Z,44.50
2018-03-21T18:46:50.667Z,44.90
2018-03-21T18:49:18.923Z,44.80
2018-03-21T18:51:47.929Z,44.10
2018-03-21T18:54:16.186Z,44.00
2018-03-21T18:56:45.198Z,43.10
2018-03-21T18:59:13.454Z,43.10
2018-03-21T19:01:42.467Z,42.80
2018-03-21T19:04:11.489Z,42.60
2018-03-21T19:06:39.726Z,42.60
2018-03-21T19:09:08.744Z,41.10
2018-03-21T19:11:36.987Z,40.90
2018-03-21T19:14:05.239Z,39.80
2018-03-21T19:16:33.483Z,40.00
2018-03-21T19:19:01.732Z,39.20
2018-03-21T19:21:30.743Z,39.90
2018-03-21T19:23:58.994Z,39.30
2018-03-21T19:26:28.002Z,38.10
2018-03-21T19:28:56.262Z,38.10
2018-03-21T19:31:25.269Z,38.30
2018-03-21T19:33:53.518Z,38.30
2018-03-21T19:36:22.543Z,38.70
2018-03-21T19:38:50.786Z,38.70
2018-03-21T19:41:19.803Z,38.60
2018-03-21T19:43:48.043Z,38.60
2018-03-21T19:46:16.298Z,38.20
2018-03-21T19:48:44.544Z,38.30
2018-03-21T19:51:12.802Z,37.00
2018-03-21T19:53:41.044Z,36.30
2018-03-21T19:56:09.305Z,37.40
2018-03-21T19:58:37.548Z,36.20
2018-03-21T20:01:05.802Z,36.10
2018-03-21T20:03:34.046Z,36.10
2018-03-21T20:06:02.307Z,36.10
2018-03-21T20:08:30.548Z,35.60
2018-03-21T20:10:58.801Z,34.70
2018-03-21T20:13:27.805Z,33.90
2018-03-21T20:15:56.054Z,33.90
2018-03-21T20:18:25.067Z,33.90
2018-03-21T20:20:53.511Z,33.90
2018-03-21T20:23:21.755Z,34.00
2018-03-21T20:25:50.100Z,34.70
2018-03-21T20:28:18.347Z,33.80
2018-03-21T20:30:46.618Z,34.10
2018-03-21T20:33:14.863Z,34.00
2018-03-21T20:35:43.108Z,33.80
2018-03-21T20:38:11.364Z,34.30
2018-03-21T20:40:40.428Z,34.10
2018-03-21T20:43:08.690Z,34.00
2018-03-21T20:45:36.937Z,34.50
2018-03-21T20:48:05.195Z,34.70
2018-03-21T20:50:33.438Z,34.30
2018-03-21T20:53:01.707Z,34.40
2018-03-21T20:55:29.959Z,34.70
2018-03-21T20:57:58.217Z,34.50
2018-03-21T21:00:26.460Z,34.80
2018-03-21T21:02:55.480Z,35.80
2018-03-21T21:05:23.725Z,35.70
2018-03-21T21:07:52.744Z,35.60
2018-03-21T21:10:20.986Z,35.60
2018-03-21T21:12:49.239Z,35.70
2018-03-21T21:15:17.479Z,35.90
2018-03-21T21:17:45.734Z,35.60
2018-03-21T21:20:14.734Z,36.00
2018-03-21T21:22:42.986Z,36.00
2018-03-21T21:25:12.001Z,36.00
2018-03-21T21:27:40.246Z,36.00
2018-03-21T21:30:09.260Z,35.90
2018-03-21T21:32:38.279Z,35.90
2018-03-21T21:35:06.528Z,35.90
2018-03-21T21:37:35.547Z,36.00
2018-03-21T21:40:03.807Z,36.00
2018-03-21T21:42:32.050Z,35.90
2018-03-21T21:45:00.324Z,36.00
2018-03-21T21:47:28.563Z,35.40
2018-03-21T21:49:56.803Z,36.70
2018-03-21T21:52:25.055Z,35.90
2018-03-21T21:54:53.299Z,36.30
2018-03-21T21:57:21.542Z,36.00
2018-03-21T21:59:49.801Z,36.80
2018-03-21T22:02:18.810Z,37.30
2018-03-21T22:04:47.055Z,37.20
2018-03-21T22:07:16.059Z,37.60
2018-03-21T22:09:45.079Z,37.70
2018-03-21T22:12:18.782Z,37.70
2018-03-21T22:14:47.053Z,38.00
2018-03-21T22:17:16.038Z,38.10
2018-03-21T22:19:44.299Z,38.10
2018-03-21T22:22:13.307Z,38.70
2018-03-21T22:24:41.554Z,38.70
2018-03-21T22:27:10.577Z,39.00
2018-03-21T22:29:38.826Z,39.00
2018-03-21T22:32:07.846Z,39.20
2018-03-21T22:34:36.110Z,39.10
2018-03-21T22:37:05.127Z,39.80
2018-03-21T22:39:33.377Z,39.80
2018-03-21T22:42:01.634Z,39.80
2018-03-21T22:44:30.771Z,39.70
2018-03-21T22:46:59.050Z,39.60
2018-03-21T22:49:28.050Z,39.80
2018-03-21T22:51:56.322Z,39.80
2018-03-21T22:54:24.589Z,39.30
2018-03-21T22:56:52.826Z,39.40
2018-03-21T22:59:21.849Z,40.00
2018-03-21T23:01:50.101Z,39.40
2018-03-21T23:04:19.130Z,39.10
2018-03-21T23:06:47.378Z,38.50
2018-03-21T23:09:16.404Z,39.00
2018-03-21T23:11:44.652Z,39.00
2018-03-21T23:14:13.681Z,39.10
2018-03-21T23:16:41.927Z,39.00
2018-03-21T23:19:10.179Z,39.00
2018-03-21T23:21:39.198Z,38.80
2018-03-21T23:24:07.446Z,38.80
2018-03-21T23:26:36.462Z,38.60
2018-03-21T23:29:04.738Z,38.50
2018-03-21T23:31:32.987Z,38.40
2018-03-21T23:34:01.227Z,38.00
2018-03-21T23:36:29.488Z,38.10
2018-03-21T23:38:57.739Z,38.20
2018-03-21T23:41:26.004Z,38.80
2018-03-21T23:43:55.008Z,38.50
2018-03-21T23:46:23.264Z,38.50
2018-03-21T23:48:52.271Z,38.00
2018-03-21T23:51:21.291Z,37.50
2018-03-21T23:53:49.542Z,37.40
2018-03-21T23:56:17.798Z,37.70
2018-03-21T23:58:46.823Z,37.80
